sensor_id;sensor_type;location;lat;lon;timestamp;pressure;altitude;pressure_sealevel;temperature;humidity
64053;BME280;50299;49.524;8.536;2023-05-25T00:00:11;101058.00;;;5.56;55.11
64053;BME280;50299;49.524;8.536;2023-05-25T00:02:38;101051.09;;;5.63;55.38
64053;BME280;50299;49.524;8.536;2023-05-25T00:05:07;101059.34;;;5.63;55.11
64053;BME280;50299;49.524;8.536;2023-05-25T00:07:34;101063.47;;;5.56;55.24
64053;BME280;50299;49.524;8.536;2023-05-25T00:10:01;101062.03;;;5.69;55.51
64053;BME280;50299;49.524;8.536;2023-05-25T00:12:27;101059.66;;;5.41;54.83
64053;BME280;50299;49.524;8.536;2023-05-25T00:14:54;101065.19;;;5.36;55.55
64053;BME280;50299;49.524;8.536;2023-05-25T00:17:20;101058.91;;;5.21;57.26
64053;BME280;50299;49.524;8.536;2023-05-25T00:19:47;101060.81;;;5.30;56.18
64053;BME280;50299;49.524;8.536;2023-05-25T00:22:14;101066.38;;;4.84;56.54
64053;BME280;50299;49.524;8.536;2023-05-25T00:24:40;101065.00;;;4.46;58.54
64053;BME280;50299;49.524;8.536;2023-05-25T00:27:07;101059.53;;;4.36;58.77
64053;BME280;50299;49.524;8.536;2023-05-25T00:29:34;101065.50;;;4.17;59.31
64053;BME280;50299;49.524;8.536;2023-05-25T00:32:01;101055.94;;;4.51;59.43
64053;BME280;50299;49.524;8.536;2023-05-25T00:34:28;101051.03;;;4.63;58.81
64053;BME280;50299;49.524;8.536;2023-05-25T00:36:54;101051.56;;;4.70;58.33
64053;BME280;50299;49.524;8.536;2023-05-25T00:39:21;101052.94;;;4.47;58.66
64053;BME280;50299;49.524;8.536;2023-05-25T00:41:48;101051.31;;;4.46;59.12
64053;BME280;50299;49.524;8.536;2023-05-25T00:44:15;101052.09;;;4.72;59.13
64053;BME280;50299;49.524;8.536;2023-05-25T00:46:47;101053.78;;;4.73;58.50
64053;BME280;50299;49.524;8.536;2023-05-25T00:49:18;101053.22;;;4.66;58.91
64053;BME280;50299;49.524;8.536;2023-05-25T00:51:45;101048.28;;;4.88;59.02
64053;BME280;50299;49.524;8.536;2023-05-25T00:54:16;101058.91;;;5.21;57.90
64053;BME280;50299;49.524;8.536;2023-05-25T00:56:45;101053.41;;;5.36;57.78
64053;BME280;50299;49.524;8.536;2023-05-25T00:59:16;101068.66;;;5.57;61.00
64053;BME280;50299;49.524;8.536;2023-05-25T01:01:46;101065.31;;;5.71;62.00
64053;BME280;50299;49.524;8.536;2023-05-25T01:04:14;101065.81;;;5.88;60.84
64053;BME280;50299;49.524;8.536;2023-05-25T01:06:44;101061.06;;;5.99;59.93
64053;BME280;50299;49.524;8.536;2023-05-25T01:09:15;101068.88;;;6.21;64.19
64053;BME280;50299;49.524;8.536;2023-05-25T01:11:45;101068.59;;;6.27;60.95
64053;BME280;50299;49.524;8.536;2023-05-25T01:14:17;101070.03;;;6.14;64.83
64053;BME280;50299;49.524;8.536;2023-05-25T01:16:44;101065.59;;;6.24;61.39
64053;BME280;50299;49.524;8.536;2023-05-25T01:19:11;101065.81;;;6.32;65.19
64053;BME280;50299;49.524;8.536;2023-05-25T01:21:45;101068.97;;;6.10;56.22
64053;BME280;50299;49.524;8.536;2023-05-25T01:24:29;101069.25;;;6.04;59.05
64053;BME280;50299;49.524;8.536;2023-05-25T01:27:00;101069.31;;;5.94;64.15
64053;BME280;50299;49.524;8.536;2023-05-25T01:29:32;101068.53;;;5.88;58.89
64053;BME280;50299;49.524;8.536;2023-05-25T01:32:01;101074.78;;;5.99;63.29
64053;BME280;50299;49.524;8.536;2023-05-25T01:34:29;101073.38;;;6.06;61.20
64053;BME280;50299;49.524;8.536;2023-05-25T01:36:56;101077.94;;;6.26;67.20
64053;BME280;50299;49.524;8.536;2023-05-25T01:39:23;101079.22;;;5.89;56.75
64053;BME280;50299;49.524;8.536;2023-05-25T01:41:49;101084.44;;;5.91;64.48
64053;BME280;50299;49.524;8.536;2023-05-25T01:44:17;101087.34;;;6.10;61.75
64053;BME280;50299;49.524;8.536;2023-05-25T01:46:44;101087.91;;;6.07;62.79
64053;BME280;50299;49.524;8.536;2023-05-25T01:52:07;101080.59;;;5.92;67.19
64053;BME280;50299;49.524;8.536;2023-05-25T01:54:43;101085.09;;;5.62;62.64
64053;BME280;50299;49.524;8.536;2023-05-25T01:57:14;101084.28;;;5.62;63.65
64053;BME280;50299;49.524;8.536;2023-05-25T01:59:42;101073.63;;;5.55;64.40
64053;BME280;50299;49.524;8.536;2023-05-25T02:02:13;101082.47;;;5.32;64.25
64053;BME280;50299;49.524;8.536;2023-05-25T02:04:41;101085.53;;;5.10;63.67
64053;BME280;50299;49.524;8.536;2023-05-25T02:07:08;101088.56;;;4.78;64.56
64053;BME280;50299;49.524;8.536;2023-05-25T02:09:34;101083.31;;;4.56;66.72
64053;BME280;50299;49.524;8.536;2023-05-25T02:12:01;101077.31;;;4.59;66.74
64053;BME280;50299;49.524;8.536;2023-05-25T02:14:27;101083.09;;;4.73;68.56
64053;BME280;50299;49.524;8.536;2023-05-25T02:16:54;101075.69;;;4.88;67.06
64053;BME280;50299;49.524;8.536;2023-05-25T02:19:20;101077.59;;;4.88;68.46
64053;BME280;50299;49.524;8.536;2023-05-25T02:21:47;101073.75;;;4.99;66.16
64053;BME280;50299;49.524;8.536;2023-05-25T02:24:13;101070.44;;;5.17;74.01
64053;BME280;50299;49.524;8.536;2023-05-25T02:26:40;101072.06;;;5.24;65.14
64053;BME280;50299;49.524;8.536;2023-05-25T02:29:06;101067.97;;;5.21;67.81
64053;BME280;50299;49.524;8.536;2023-05-25T02:31:33;101071.56;;;5.11;65.11
64053;BME280;50299;49.524;8.536;2023-05-25T02:33:59;101071.28;;;4.67;66.54
64053;BME280;50299;49.524;8.536;2023-05-25T02:36:26;101070.72;;;4.24;67.46
64053;BME280;50299;49.524;8.536;2023-05-25T02:38:53;101071.19;;;3.28;68.61
64053;BME280;50299;49.524;8.536;2023-05-25T02:41:19;101079.03;;;3.19;70.62
64053;BME280;50299;49.524;8.536;2023-05-25T02:43:46;101075.44;;;3.08;70.98
64053;BME280;50299;49.524;8.536;2023-05-25T02:46:13;101066.84;;;3.32;70.04
64053;BME280;50299;49.524;8.536;2023-05-25T02:48:40;101060.34;;;3.48;69.42
64053;BME280;50299;49.524;8.536;2023-05-25T02:51:07;101064.06;;;3.84;71.13
64053;BME280;50299;49.524;8.536;2023-05-25T02:53:33;101065.22;;;4.04;70.56
64053;BME280;50299;49.524;8.536;2023-05-25T02:56:00;101061.41;;;4.25;70.07
64053;BME280;50299;49.524;8.536;2023-05-25T02:58:27;101060.31;;;4.21;67.33
64053;BME280;50299;49.524;8.536;2023-05-25T03:00:54;101068.56;;;4.36;67.59
64053;BME280;50299;49.524;8.536;2023-05-25T03:03:20;101077.25;;;4.08;65.48
64053;BME280;50299;49.524;8.536;2023-05-25T03:05:47;101074.56;;;4.33;71.89
64053;BME280;50299;49.524;8.536;2023-05-25T03:08:14;101076.44;;;4.12;66.53
64053;BME280;50299;49.524;8.536;2023-05-25T03:10:41;101076.44;;;4.17;68.37
64053;BME280;50299;49.524;8.536;2023-05-25T03:13:07;101074.47;;;3.98;68.11
64053;BME280;50299;49.524;8.536;2023-05-25T03:15:34;101080.00;;;4.18;69.86
64053;BME280;50299;49.524;8.536;2023-05-25T03:18:00;101081.34;;;4.00;67.38
64053;BME280;50299;49.524;8.536;2023-05-25T03:20:27;101085.47;;;4.13;69.74
64053;BME280;50299;49.524;8.536;2023-05-25T03:22:54;101079.75;;;4.30;73.32
64053;BME280;50299;49.524;8.536;2023-05-25T03:25:21;101073.75;;;4.53;68.97
64053;BME280;50299;49.524;8.536;2023-05-25T03:27:53;101077.56;;;4.47;67.48
64053;BME280;50299;49.524;8.536;2023-05-25T03:30:21;101073.75;;;4.63;69.87
64053;BME280;50299;49.524;8.536;2023-05-25T03:32:48;101075.13;;;4.51;67.00
64053;BME280;50299;49.524;8.536;2023-05-25T03:35:15;101074.84;;;4.57;70.73
64053;BME280;50299;49.524;8.536;2023-05-25T03:37:41;101072.69;;;4.64;69.39
64053;BME280;50299;49.524;8.536;2023-05-25T03:40:08;101082.25;;;4.82;72.28
64053;BME280;50299;49.524;8.536;2023-05-25T03:42:37;101080.28;;;5.24;83.29
64053;BME280;50299;49.524;8.536;2023-05-25T03:45:04;101092.81;;;5.50;78.14
64053;BME280;50299;49.524;8.536;2023-05-25T03:47:31;101096.94;;;5.42;68.37
64053;BME280;50299;49.524;8.536;2023-05-25T03:49:58;101105.19;;;5.48;73.65
64053;BME280;50299;49.524;8.536;2023-05-25T03:52:24;101093.16;;;5.38;70.69
64053;BME280;50299;49.524;8.536;2023-05-25T03:54:51;101100.81;;;5.41;71.92
64053;BME280;50299;49.524;8.536;2023-05-25T03:57:20;101106.88;;;5.38;68.21
64053;BME280;50299;49.524;8.536;2023-05-25T03:59:47;101113.94;;;5.60;75.50
64053;BME280;50299;49.524;8.536;2023-05-25T04:02:14;101127.53;;;5.85;73.72
64053;BME280;50299;49.524;8.536;2023-05-25T04:04:40;101128.03;;;5.98;70.98
64053;BME280;50299;49.524;8.536;2023-05-25T04:07:09;101121.41;;;6.04;76.29
64053;BME280;50299;49.524;8.536;2023-05-25T04:09:36;101120.25;;;6.25;74.04
64053;BME280;50299;49.524;8.536;2023-05-25T04:12:02;101128.88;;;6.48;78.73
64053;BME280;50299;49.524;8.536;2023-05-25T04:14:29;101133.81;;;6.85;83.97
64053;BME280;50299;49.524;8.536;2023-05-25T04:16:59;101134.38;;;6.82;66.30
64053;BME280;50299;49.524;8.536;2023-05-25T04:19:25;101133.00;;;6.84;74.83
64053;BME280;50299;49.524;8.536;2023-05-25T04:21:52;101145.56;;;6.96;79.11
64053;BME280;50299;49.524;8.536;2023-05-25T04:24:18;101146.28;;;6.72;70.75
64053;BME280;50299;49.524;8.536;2023-05-25T04:26:45;101147.66;;;6.75;68.90
64053;BME280;50299;49.524;8.536;2023-05-25T04:29:12;101155.50;;;6.92;71.59
64053;BME280;50299;49.524;8.536;2023-05-25T04:31:39;101156.47;;;7.06;69.79
64053;BME280;50299;49.524;8.536;2023-05-25T04:34:06;101149.56;;;7.08;69.37
64053;BME280;50299;49.524;8.536;2023-05-25T04:36:34;101155.50;;;6.92;62.61
64053;BME280;50299;49.524;8.536;2023-05-25T04:39:04;101162.53;;;7.03;69.45
64053;BME280;50299;49.524;8.536;2023-05-25T04:41:32;101160.03;;;7.06;69.07
64053;BME280;50299;49.524;8.536;2023-05-25T04:43:59;101157.25;;;7.40;65.82
64053;BME280;50299;49.524;8.536;2023-05-25T04:46:35;101151.78;;;7.64;63.56
64053;BME280;50299;49.524;8.536;2023-05-25T04:49:05;101156.94;;;7.71;62.26
64053;BME280;50299;49.524;8.536;2023-05-25T04:51:34;101149.44;;;8.01;65.04
64053;BME280;50299;49.524;8.536;2023-05-25T04:54:01;101166.75;;;8.01;64.53
64053;BME280;50299;49.524;8.536;2023-05-25T04:56:35;101164.66;;;7.93;59.26
64053;BME280;50299;49.524;8.536;2023-05-25T04:59:01;101162.22;;;7.68;62.50
64053;BME280;50299;49.524;8.536;2023-05-25T05:01:29;101164.47;;;7.02;59.08
64053;BME280;50299;49.524;8.536;2023-05-25T05:03:59;101163.13;;;7.00;58.86
64053;BME280;50299;49.524;8.536;2023-05-25T05:06:26;101163.44;;;6.59;60.65
64053;BME280;50299;49.524;8.536;2023-05-25T05:08:53;101160.91;;;7.31;58.89
64053;BME280;50299;49.524;8.536;2023-05-25T05:11:19;101164.97;;;7.38;57.74
64053;BME280;50299;49.524;8.536;2023-05-25T05:13:47;101164.16;;;7.91;57.58
64053;BME280;50299;49.524;8.536;2023-05-25T05:16:14;101174.34;;;7.91;58.54
64053;BME280;50299;49.524;8.536;2023-05-25T05:18:43;101165.56;;;8.31;60.81
64053;BME280;50299;49.524;8.536;2023-05-25T05:21:09;101168.47;;;8.59;57.78
64053;BME280;50299;49.524;8.536;2023-05-25T05:23:41;101172.06;;;8.78;58.80
64053;BME280;50299;49.524;8.536;2023-05-25T05:26:08;101163.34;;;9.36;57.72
64053;BME280;50299;49.524;8.536;2023-05-25T05:28:36;101169.28;;;9.30;57.05
64053;BME280;50299;49.524;8.536;2023-05-25T05:31:03;101174.69;;;9.21;57.86
64053;BME280;50299;49.524;8.536;2023-05-25T05:33:32;101169.47;;;9.33;55.86
64053;BME280;50299;49.524;8.536;2023-05-25T05:36:02;101166.78;;;9.15;53.80
64053;BME280;50299;49.524;8.536;2023-05-25T05:38:29;101160.22;;;8.97;53.54
64053;BME280;50299;49.524;8.536;2023-05-25T05:40:58;101168.34;;;8.69;53.10
64053;BME280;50299;49.524;8.536;2023-05-25T05:43:28;101162.53;;;9.22;53.75
64053;BME280;50299;49.524;8.536;2023-05-25T05:45:54;101169.47;;;9.94;52.90
64053;BME280;50299;49.524;8.536;2023-05-25T05:48:21;101170.75;;;10.24;51.15
64053;BME280;50299;49.524;8.536;2023-05-25T05:50:48;101177.94;;;10.75;51.73
64053;BME280;50299;49.524;8.536;2023-05-25T05:53:17;101179.16;;;10.82;51.30
64053;BME280;50299;49.524;8.536;2023-05-25T05:55:43;101166.25;;;10.42;49.08
64053;BME280;50299;49.524;8.536;2023-05-25T05:58:11;101172.22;;;10.94;48.79
64053;BME280;50299;49.524;8.536;2023-05-25T06:00:38;101169.44;;;10.71;46.87
64053;BME280;50299;49.524;8.536;2023-05-25T06:03:04;101189.16;;;10.92;45.07
64053;BME280;50299;49.524;8.536;2023-05-25T06:05:31;101186.66;;;11.27;45.91
64053;BME280;50299;49.524;8.536;2023-05-25T06:08:01;101188.91;;;10.66;45.73
64053;BME280;50299;49.524;8.536;2023-05-25T06:10:31;101182.53;;;11.02;49.68
64053;BME280;50299;49.524;8.536;2023-05-25T06:12:58;101195.63;;;11.64;46.65
64053;BME280;50299;49.524;8.536;2023-05-25T06:15:24;101191.50;;;10.99;44.33
64053;BME280;50299;49.524;8.536;2023-05-25T06:17:51;101195.38;;;11.74;44.64
64053;BME280;50299;49.524;8.536;2023-05-25T06:20:18;101189.06;;;11.82;44.02
64053;BME280;50299;49.524;8.536;2023-05-25T06:22:44;101202.22;;;12.16;41.66
64053;BME280;50299;49.524;8.536;2023-05-25T06:25:11;101203.91;;;12.34;43.02
64053;BME280;50299;49.524;8.536;2023-05-25T06:27:44;101192.66;;;11.82;42.87
64053;BME280;50299;49.524;8.536;2023-05-25T06:30:11;101189.84;;;11.51;43.10
64053;BME280;50299;49.524;8.536;2023-05-25T06:32:38;101197.66;;;10.96;43.05
64053;BME280;50299;49.524;8.536;2023-05-25T06:35:07;101204.09;;;11.90;51.70
64053;BME280;50299;49.524;8.536;2023-05-25T06:37:34;101204.69;;;11.55;42.40
64053;BME280;50299;49.524;8.536;2023-05-25T06:40:06;101201.19;;;10.60;44.69
64053;BME280;50299;49.524;8.536;2023-05-25T06:42:38;101203.47;;;10.58;45.64
64053;BME280;50299;49.524;8.536;2023-05-25T06:45:05;101199.31;;;10.69;43.84
64053;BME280;50299;49.524;8.536;2023-05-25T06:47:36;101204.88;;;10.83;46.60
64053;BME280;50299;49.524;8.536;2023-05-25T06:50:06;101205.41;;;11.39;45.26
64053;BME280;50299;49.524;8.536;2023-05-25T06:52:33;101207.81;;;10.87;44.26
64053;BME280;50299;49.524;8.536;2023-05-25T06:55:00;101196.41;;;10.52;48.29
64053;BME280;50299;49.524;8.536;2023-05-25T06:57:29;101202.69;;;11.70;43.71
64053;BME280;50299;49.524;8.536;2023-05-25T06:59:55;101202.47;;;11.66;44.31
64053;BME280;50299;49.524;8.536;2023-05-25T07:02:22;101199.16;;;11.24;44.25
64053;BME280;50299;49.524;8.536;2023-05-25T07:04:49;101210.28;;;10.88;43.65
64053;BME280;50299;49.524;8.536;2023-05-25T07:07:18;101207.84;;;11.63;43.81
64053;BME280;50299;49.524;8.536;2023-05-25T07:09:48;101205.13;;;12.02;46.01
64053;BME280;50299;49.524;8.536;2023-05-25T07:12:15;101207.53;;;11.64;44.69
64053;BME280;50299;49.524;8.536;2023-05-25T07:14:42;101205.31;;;11.21;43.87
64053;BME280;50299;49.524;8.536;2023-05-25T07:17:13;101208.59;;;10.51;45.08
64053;BME280;50299;49.524;8.536;2023-05-25T07:19:41;101211.03;;;11.78;44.64
64053;BME280;50299;49.524;8.536;2023-05-25T07:22:08;101209.72;;;12.16;41.68
64053;BME280;50299;49.524;8.536;2023-05-25T07:24:38;101210.16;;;12.66;42.40
64053;BME280;50299;49.524;8.536;2023-05-25T07:27:05;101206.69;;;12.43;41.52
64053;BME280;50299;49.524;8.536;2023-05-25T07:29:32;101204.97;;;12.07;42.25
64053;BME280;50299;49.524;8.536;2023-05-25T07:31:58;101207.03;;;12.50;42.53
64053;BME280;50299;49.524;8.536;2023-05-25T07:34:25;101204.91;;;12.56;40.37
64053;BME280;50299;49.524;8.536;2023-05-25T07:37:14;101207.88;;;12.68;43.31
64053;BME280;50299;49.524;8.536;2023-05-25T07:39:41;101203.28;;;13.33;41.33
64053;BME280;50299;49.524;8.536;2023-05-25T07:42:07;101207.09;;;12.68;41.68
64053;BME280;50299;49.524;8.536;2023-05-25T07:44:34;101211.91;;;13.58;40.39
64053;BME280;50299;49.524;8.536;2023-05-25T07:47:00;101209.22;;;12.79;41.20
64053;BME280;50299;49.524;8.536;2023-05-25T07:49:27;101210.66;;;12.77;39.67
64053;BME280;50299;49.524;8.536;2023-05-25T07:51:54;101217.59;;;13.61;41.24
64053;BME280;50299;49.524;8.536;2023-05-25T07:54:20;101216.88;;;13.00;38.51
64053;BME280;50299;49.524;8.536;2023-05-25T07:56:47;101216.28;;;12.28;40.85
64053;BME280;50299;49.524;8.536;2023-05-25T07:59:14;101229.91;;;12.73;40.59
64053;BME280;50299;49.524;8.536;2023-05-25T08:01:43;101210.28;;;13.39;40.09
64053;BME280;50299;49.524;8.536;2023-05-25T08:04:10;101225.50;;;13.07;40.34
64053;BME280;50299;49.524;8.536;2023-05-25T08:06:37;101210.94;;;13.36;41.16
64053;BME280;50299;49.524;8.536;2023-05-25T08:09:03;101221.59;;;12.91;39.42
64053;BME280;50299;49.524;8.536;2023-05-25T08:11:33;101216.91;;;12.25;40.39
64053;BME280;50299;49.524;8.536;2023-05-25T08:14:02;101223.50;;;12.47;41.01
64053;BME280;50299;49.524;8.536;2023-05-25T08:16:29;101212.28;;;13.21;39.79
64053;BME280;50299;49.524;8.536;2023-05-25T08:18:55;101214.50;;;13.63;39.43
64053;BME280;50299;49.524;8.536;2023-05-25T08:21:25;101223.34;;;12.52;39.79
64053;BME280;50299;49.524;8.536;2023-05-25T08:23:51;101205.41;;;13.53;41.26
64053;BME280;50299;49.524;8.536;2023-05-25T08:26:19;101210.81;;;13.88;38.52
64053;BME280;50299;49.524;8.536;2023-05-25T08:29:08;101223.09;;;13.87;38.20
64053;BME280;50299;49.524;8.536;2023-05-25T08:31:35;101210.03;;;14.17;38.43
64053;BME280;50299;49.524;8.536;2023-05-25T08:34:02;101211.72;;;14.39;38.17
64053;BME280;50299;49.524;8.536;2023-05-25T08:36:32;101219.72;;;13.64;40.00
64053;BME280;50299;49.524;8.536;2023-05-25T08:38:59;101217.19;;;14.77;40.23
64053;BME280;50299;49.524;8.536;2023-05-25T08:41:27;101227.44;;;13.97;37.25
64053;BME280;50299;49.524;8.536;2023-05-25T08:44:00;101211.78;;;14.22;38.40
64053;BME280;50299;49.524;8.536;2023-05-25T08:46:31;101215.06;;;14.53;37.29
64053;BME280;50299;49.524;8.536;2023-05-25T08:49:04;101215.00;;;15.04;38.21
64053;BME280;50299;49.524;8.536;2023-05-25T08:51:35;101216.28;;;14.05;38.40
64053;BME280;50299;49.524;8.536;2023-05-25T08:54:15;101217.78;;;14.41;38.08
64053;BME280;50299;49.524;8.536;2023-05-25T08:56:52;101220.94;;;15.36;37.21
64053;BME280;50299;49.524;8.536;2023-05-25T08:59:27;101223.56;;;14.57;37.52
64053;BME280;50299;49.524;8.536;2023-05-25T09:04:58;101216.78;;;14.08;39.68
64053;BME280;50299;49.524;8.536;2023-05-25T09:07:27;101212.81;;;14.17;38.66
64053;BME280;50299;49.524;8.536;2023-05-25T09:10:04;101222.97;;;14.93;37.39
64053;BME280;50299;49.524;8.536;2023-05-25T09:12:34;101209.13;;;13.66;39.18
64053;BME280;50299;49.524;8.536;2023-05-25T09:15:05;101219.97;;;12.90;39.74
64053;BME280;50299;49.524;8.536;2023-05-25T09:17:32;101226.31;;;13.07;39.33
64053;BME280;50299;49.524;8.536;2023-05-25T09:20:02;101218.72;;;14.16;39.12
64053;BME280;50299;49.524;8.536;2023-05-25T09:22:29;101216.56;;;14.93;39.81
64053;BME280;50299;49.524;8.536;2023-05-25T09:24:55;101210.38;;;14.16;38.18
64053;BME280;50299;49.524;8.536;2023-05-25T09:27:22;101212.94;;;13.91;38.06
64053;BME280;50299;49.524;8.536;2023-05-25T09:29:49;101224.97;;;14.84;37.23
64053;BME280;50299;49.524;8.536;2023-05-25T09:32:17;101214.00;;;14.67;37.94
64053;BME280;50299;49.524;8.536;2023-05-25T09:34:45;101218.34;;;14.97;36.53
64053;BME280;50299;49.524;8.536;2023-05-25T09:37:13;101218.94;;;14.82;36.60
64053;BME280;50299;49.524;8.536;2023-05-25T09:39:40;101210.38;;;14.87;38.21
64053;BME280;50299;49.524;8.536;2023-05-25T09:42:08;101219.50;;;15.63;35.91
64053;BME280;50299;49.524;8.536;2023-05-25T09:44:35;101222.88;;;15.56;36.08
64053;BME280;50299;49.524;8.536;2023-05-25T09:47:03;101219.97;;;15.19;35.87
64053;BME280;50299;49.524;8.536;2023-05-25T09:49:30;101212.34;;;14.45;37.88
64053;BME280;50299;49.524;8.536;2023-05-25T09:51:56;101212.38;;;14.87;38.28
64053;BME280;50299;49.524;8.536;2023-05-25T09:54:24;101208.16;;;15.68;38.33
64053;BME280;50299;49.524;8.536;2023-05-25T09:56:51;101212.84;;;16.37;35.40
64053;BME280;50299;49.524;8.536;2023-05-25T09:59:18;101207.81;;;15.82;36.92
64053;BME280;50299;49.524;8.536;2023-05-25T10:01:49;101215.22;;;15.65;36.83
64053;BME280;50299;49.524;8.536;2023-05-25T10:04:16;101222.25;;;15.96;36.31
64053;BME280;50299;49.524;8.536;2023-05-25T10:06:44;101227.31;;;15.82;36.13
64053;BME280;50299;49.524;8.536;2023-05-25T10:09:12;101226.69;;;15.97;37.16
64053;BME280;50299;49.524;8.536;2023-05-25T10:11:42;101227.00;;;16.32;37.18
64053;BME280;50299;49.524;8.536;2023-05-25T10:14:25;101219.56;;;16.36;36.36
64053;BME280;50299;49.524;8.536;2023-05-25T10:16:57;101229.00;;;15.95;36.56
64053;BME280;50299;49.524;8.536;2023-05-25T10:19:32;101229.47;;;15.51;37.28
64053;BME280;50299;49.524;8.536;2023-05-25T10:22:12;101226.38;;;15.77;37.64
64053;BME280;50299;49.524;8.536;2023-05-25T10:25:15;101224.50;;;15.69;36.22
64053;BME280;50299;49.524;8.536;2023-05-25T10:27:46;101222.09;;;15.68;37.21
64053;BME280;50299;49.524;8.536;2023-05-25T10:30:14;101228.78;;;15.00;38.26
64053;BME280;50299;49.524;8.536;2023-05-25T10:32:43;101219.97;;;15.65;36.71
64053;BME280;50299;49.524;8.536;2023-05-25T10:35:11;101222.72;;;15.98;37.15
64053;BME280;50299;49.524;8.536;2023-05-25T10:37:38;101219.97;;;15.52;38.53
64053;BME280;50299;49.524;8.536;2023-05-25T10:40:05;101211.34;;;16.15;36.62
64053;BME280;50299;49.524;8.536;2023-05-25T10:42:33;101213.84;;;16.69;35.16
64053;BME280;50299;49.524;8.536;2023-05-25T10:45:05;101211.31;;;16.52;36.22
64053;BME280;50299;49.524;8.536;2023-05-25T10:47:35;101218.03;;;16.75;34.51
64053;BME280;50299;49.524;8.536;2023-05-25T10:50:02;101220.06;;;15.44;36.82
64053;BME280;50299;49.524;8.536;2023-05-25T10:52:31;101211.44;;;16.43;35.57
64053;BME280;50299;49.524;8.536;2023-05-25T10:54:59;101204.53;;;16.53;35.62
64053;BME280;50299;49.524;8.536;2023-05-25T10:57:32;101194.06;;;17.31;34.53
64053;BME280;50299;49.524;8.536;2023-05-25T11:00:06;101214.50;;;17.47;33.12
64053;BME280;50299;49.524;8.536;2023-05-25T11:02:48;101214.66;;;17.10;32.88
64053;BME280;50299;49.524;8.536;2023-05-25T11:07:55;101208.31;;;16.08;35.74
64053;BME280;50299;49.524;8.536;2023-05-25T11:10:42;101199.72;;;16.25;34.74
64053;BME280;50299;49.524;8.536;2023-05-25T11:16:52;101200.53;;;16.01;35.62
64053;BME280;50299;49.524;8.536;2023-05-25T11:18:56;101199.72;;;16.13;35.88
64053;BME280;50299;49.524;8.536;2023-05-25T11:24:01;101206.88;;;16.63;34.68
64053;BME280;50299;49.524;8.536;2023-05-25T11:26:32;101207.81;;;16.55;36.73
64053;BME280;50299;49.524;8.536;2023-05-25T11:29:00;101193.44;;;16.16;34.84
64053;BME280;50299;49.524;8.536;2023-05-25T11:31:29;101197.25;;;15.29;36.48
64053;BME280;50299;49.524;8.536;2023-05-25T11:34:08;101193.06;;;15.69;36.61
64053;BME280;50299;49.524;8.536;2023-05-25T11:36:37;101189.94;;;16.19;36.12
64053;BME280;50299;49.524;8.536;2023-05-25T11:39:05;101186.69;;;16.42;34.60
64053;BME280;50299;49.524;8.536;2023-05-25T11:41:52;101185.13;;;17.25;34.02
64053;BME280;50299;49.524;8.536;2023-05-25T11:44:25;101177.19;;;17.27;32.19
64053;BME280;50299;49.524;8.536;2023-05-25T11:46:56;101178.38;;;17.26;32.71
64053;BME280;50299;49.524;8.536;2023-05-25T11:49:27;101177.72;;;17.45;33.34
64053;BME280;50299;49.524;8.536;2023-05-25T11:51:55;101178.59;;;18.28;31.10
64053;BME280;50299;49.524;8.536;2023-05-25T11:54:24;101171.66;;;18.22;31.49
64053;BME280;50299;49.524;8.536;2023-05-25T11:56:51;101168.72;;;17.83;31.55
64053;BME280;50299;49.524;8.536;2023-05-25T11:59:18;101173.75;;;17.46;31.91
64053;BME280;50299;49.524;8.536;2023-05-25T12:01:54;101166.91;;;17.91;32.31
64053;BME280;50299;49.524;8.536;2023-05-25T12:04:21;101179.63;;;17.72;32.33
64053;BME280;50299;49.524;8.536;2023-05-25T12:06:49;101177.19;;;18.73;30.77
64053;BME280;50299;49.524;8.536;2023-05-25T12:09:20;101182.03;;;19.34;32.87
64053;BME280;50299;49.524;8.536;2023-05-25T12:11:47;101166.31;;;18.87;30.01
64053;BME280;50299;49.524;8.536;2023-05-25T12:14:14;101169.81;;;18.65;30.97
64053;BME280;50299;49.524;8.536;2023-05-25T12:16:41;101167.78;;;17.95;30.94
64053;BME280;50299;49.524;8.536;2023-05-25T12:19:11;101157.44;;;17.80;31.10
64053;BME280;50299;49.524;8.536;2023-05-25T12:21:39;101154.53;;;17.60;34.40
64053;BME280;50299;49.524;8.536;2023-05-25T12:24:07;101152.94;;;18.61;30.95
64053;BME280;50299;49.524;8.536;2023-05-25T12:26:46;101154.81;;;19.35;29.08
64053;BME280;50299;49.524;8.536;2023-05-25T12:29:15;101152.44;;;18.94;29.69
64053;BME280;50299;49.524;8.536;2023-05-25T12:31:45;101161.78;;;19.64;29.94
64053;BME280;50299;49.524;8.536;2023-05-25T12:34:16;101154.53;;;19.20;29.19
64053;BME280;50299;49.524;8.536;2023-05-25T12:36:53;101152.44;;;18.56;31.48
64053;BME280;50299;49.524;8.536;2023-05-25T12:42:02;101149.19;;;19.12;29.37
64053;BME280;50299;49.524;8.536;2023-05-25T12:44:34;101134.25;;;19.96;28.81
64053;BME280;50299;49.524;8.536;2023-05-25T12:47:15;101140.81;;;19.81;27.86
64053;BME280;50299;49.524;8.536;2023-05-25T12:49:50;101140.53;;;20.12;29.81
64053;BME280;50299;49.524;8.536;2023-05-25T12:55:25;101135.25;;;19.84;27.81
64053;BME280;50299;49.524;8.536;2023-05-25T12:57:57;101143.25;;;20.35;30.88
64053;BME280;50299;49.524;8.536;2023-05-25T13:00:26;101135.22;;;19.58;27.79
64053;BME280;50299;49.524;8.536;2023-05-25T13:02:53;101137.00;;;19.23;28.37
64053;BME280;50299;49.524;8.536;2023-05-25T13:05:28;101140.25;;;18.67;28.75
64053;BME280;50299;49.524;8.536;2023-05-25T13:07:55;101139.34;;;19.64;29.08
64053;BME280;50299;49.524;8.536;2023-05-25T13:10:23;101137.03;;;18.65;29.48
64053;BME280;50299;49.524;8.536;2023-05-25T13:12:50;101142.75;;;19.54;28.85
64053;BME280;50299;49.524;8.536;2023-05-25T13:15:18;101135.00;;;19.70;28.34
64053;BME280;50299;49.524;8.536;2023-05-25T13:17:49;101134.00;;;20.65;27.00
64053;BME280;50299;49.524;8.536;2023-05-25T13:20:23;101127.25;;;20.69;25.91
64053;BME280;50299;49.524;8.536;2023-05-25T13:22:52;101126.69;;;20.00;28.71